Koeln, Germany

10:53 AM CEST on August 31, 2015 (GMT +0200)
Lind | | Change Station
CLOSE
Current Station
Personal Weather Station
Location: Koeln, NRW
Elevation: 177 ft
Nearby Weather Stations

Elev 177 ft 50.85 °N, 7.10 °E | Updated 2 minutes ago

Clear
Clear
80.6 °F
Feels Like 81 °F
N
4.5
Wind Variable Wind from South
Gusts 9.8 mph

Today
High -- | Low -- °F
--% Chance of Precip.
Yesterday
High -- | Low -- °F
Precip. -- in
6:42 AM 8:19 PM
Waning Gibbous, 96% visible
Pressure 29.89 in
Visibility -9999.0 miles
Clouds
Heat Index 81 °F
Dew Point 58 °F
Humidity 47%
Rainfall 0.00 in
Snow Depth Not available.
UV 0.0 out of 12
Pollen Not available.
Air Quality Not available.
Flu Activity Not available.
METAR EDDK 310820Z 15005KT CAVOK 26/17 Q1012 NOSIG
Pressure 29.89 in
Visibility -9999.0 miles
Clouds
Heat Index 81 °F
Dew Point 58 °F
Humidity 47%
Rainfall 0.00 in
Snow Depth Not available.
UV 0.0 out of 12
Pollen Not available.
Air Quality Not available.
Flu Activity Not available.
METAR EDDK 310820Z 15005KT CAVOK 26/17 Q1012 NOSIG

10-Day Weather Forecast

×

Almanac

Astronomy

Aug. 31, 2015 Rise Set
Actual Time
Civil Twilight
Nautical Twilight
Astronomical Twilight
Moon
Length of Visible Light
Length of Day
Tomorrow will be .
, % of the Moon is Illuminated

Today's Extremes

Country Highs Country Lows

Community

WunderPhotos

Upload Photos

1,851,220 photos uploaded!

WunderBlogs® & News

Nearby

Air Quality

  Air Quality AQ Index Pollutant
Not available.

Snow Depth

Station Depth Elevation

Earthquake Activity

City Distance Mag. Time & Date
Minimum magnitude displayed is 2.5.

Coastal Water Temperatures

Place Temperature

Stations

Nearby Weather Stations

Station Location Temp. Windchill Dew Point Humidity Wind Precip. Elev Updated Type